createdAt,value
2018-07-25T00:01:03.132Z,17.08
2018-07-25T00:03:31.236Z,17.08
2018-07-25T00:05:59.340Z,17.10
2018-07-25T00:08:27.413Z,17.08
2018-07-25T00:10:55.653Z,17.12
2018-07-25T00:13:25.240Z,17.09
2018-07-25T00:15:53.225Z,17.07
2018-07-25T00:18:21.301Z,17.04
2018-07-25T00:20:49.303Z,17.05
2018-07-25T00:23:17.344Z,17.06
2018-07-25T00:25:45.482Z,17.06
2018-07-25T00:28:13.608Z,17.08
2018-07-25T00:30:41.667Z,17.09
2018-07-25T00:33:09.769Z,17.08
2018-07-25T00:35:37.794Z,17.05
2018-07-25T00:38:05.895Z,17.00
2018-07-25T00:40:34.037Z,17.00
2018-07-25T00:43:02.027Z,16.99
2018-07-25T00:45:30.226Z,16.98
2018-07-25T00:47:58.370Z,16.95
2018-07-25T00:50:26.695Z,16.92
2018-07-25T00:52:54.821Z,16.88
2018-07-25T00:55:22.844Z,16.81
2018-07-25T00:57:50.894Z,16.75
2018-07-25T01:00:18.879Z,16.69
2018-07-25T01:02:47.683Z,16.62
2018-07-25T01:05:15.883Z,16.56
2018-07-25T01:07:43.974Z,16.49
2018-07-25T01:10:12.056Z,16.46
2018-07-25T01:12:40.146Z,16.40
2018-07-25T01:15:08.920Z,16.33
2018-07-25T01:17:37.250Z,16.26
2018-07-25T01:20:05.640Z,16.18
2018-07-25T01:22:33.773Z,16.18
2018-07-25T01:25:02.176Z,16.16
2018-07-25T01:27:30.184Z,16.10
2018-07-25T01:29:58.150Z,16.04
2018-07-25T01:32:26.281Z,16.02
2018-07-25T01:34:54.242Z,16.02
2018-07-25T01:37:22.259Z,16.03
2018-07-25T01:39:50.305Z,16.04
2018-07-25T01:42:18.549Z,16.05
2018-07-25T01:44:46.683Z,16.07
2018-07-25T01:47:14.822Z,16.03
2018-07-25T01:49:42.907Z,16.02
2018-07-25T01:52:10.947Z,15.98
2018-07-25T01:54:39.095Z,15.98
2018-07-25T01:57:07.731Z,16.00
2018-07-25T01:59:35.818Z,16.06
2018-07-25T02:02:04.028Z,16.12
2018-07-25T02:04:32.027Z,16.22
2018-07-25T02:07:00.137Z,16.25
2018-07-25T02:09:28.273Z,16.25
2018-07-25T02:11:56.233Z,16.28
2018-07-25T02:14:24.384Z,16.42
2018-07-25T02:16:52.465Z,16.44
2018-07-25T02:19:20.706Z,16.42
2018-07-25T02:21:48.745Z,16.42
2018-07-25T02:24:16.762Z,16.42
2018-07-25T02:26:44.893Z,16.43
2018-07-25T02:29:12.925Z,16.40
2018-07-25T02:31:41.034Z,16.38
2018-07-25T02:34:14.512Z,16.39
2018-07-25T02:36:42.554Z,16.42
2018-07-25T02:39:12.300Z,16.44
2018-07-25T02:41:40.457Z,16.42
2018-07-25T02:44:08.609Z,16.39
2018-07-25T02:46:36.695Z,16.37
2018-07-25T02:49:04.772Z,16.37
2018-07-25T02:51:33.324Z,16.37
2018-07-25T02:54:01.443Z,16.38
2018-07-25T02:56:29.566Z,16.36
2018-07-25T02:58:57.757Z,16.33
2018-07-25T03:01:26.073Z,16.30
2018-07-25T03:03:54.192Z,16.27
2018-07-25T03:06:22.274Z,16.26
2018-07-25T03:08:50.365Z,16.17
2018-07-25T03:11:18.313Z,16.19
2018-07-25T03:13:46.360Z,16.15
2018-07-25T03:16:14.510Z,16.15
2018-07-25T03:18:42.588Z,16.16
2018-07-25T03:21:10.718Z,16.13
2018-07-25T03:23:38.779Z,16.15
2018-07-25T03:26:06.882Z,16.14
2018-07-25T03:28:34.877Z,16.15
2018-07-25T03:31:02.880Z,16.18
2018-07-25T03:33:30.919Z,16.20
2018-07-25T03:35:59.601Z,16.22
2018-07-25T03:38:28.550Z,16.26
2018-07-25T03:40:56.996Z,16.24
2018-07-25T03:43:25.399Z,16.24
2018-07-25T03:45:53.447Z,16.28
2018-07-25T03:48:21.527Z,16.29
2018-07-25T03:50:49.596Z,16.30
2018-07-25T03:53:17.792Z,16.35
2018-07-25T03:55:45.804Z,16.43
2018-07-25T03:58:13.911Z,16.46
2018-07-25T04:00:41.961Z,16.57
2018-07-25T04:03:09.968Z,16.67
2018-07-25T04:05:38.099Z,16.67
2018-07-25T04:08:06.524Z,16.74
2018-07-25T04:10:34.920Z,16.82
2018-07-25T04:13:03.401Z,16.96
2018-07-25T04:15:31.746Z,17.17
2018-07-25T04:18:00.088Z,17.29
2018-07-25T04:20:28.528Z,17.27
2018-07-25T04:22:56.818Z,17.25
2018-07-25T04:25:25.164Z,17.30
2018-07-25T04:27:53.728Z,17.38
2018-07-25T04:30:22.514Z,17.47
2018-07-25T04:32:52.087Z,17.58
2018-07-25T04:35:20.682Z,17.68
2018-07-25T04:37:49.282Z,17.83
2018-07-25T04:40:17.689Z,18.06
2018-07-25T04:42:46.271Z,18.33
2018-07-25T04:45:14.623Z,18.44
2018-07-25T04:47:42.924Z,18.84
2018-07-25T04:50:11.415Z,19.57
2018-07-25T04:52:39.907Z,19.49
2018-07-25T04:55:08.357Z,19.27
2018-07-25T04:57:36.594Z,19.24
2018-07-25T05:00:05.387Z,19.14
2018-07-25T05:02:33.564Z,19.31
2018-07-25T05:05:01.931Z,19.31
2018-07-25T05:07:30.119Z,19.33
2018-07-25T05:09:58.215Z,18.97
2018-07-25T05:12:26.606Z,18.89
2018-07-25T05:14:54.865Z,18.90
2018-07-25T05:17:23.187Z,18.91
2018-07-25T05:19:51.420Z,18.91
2018-07-25T05:22:19.871Z,18.90
2018-07-25T05:24:48.011Z,18.89
2018-07-25T05:27:16.340Z,18.90
2018-07-25T05:29:44.471Z,18.82
2018-07-25T05:32:12.613Z,18.85
2018-07-25T05:34:40.819Z,18.71
2018-07-25T05:37:09.006Z,18.81
2018-07-25T05:39:37.255Z,18.91
2018-07-25T05:42:05.410Z,19.04
2018-07-25T05:44:33.658Z,19.01
2018-07-25T05:47:02.428Z,19.04
2018-07-25T05:49:30.933Z,19.25
2018-07-25T05:51:59.110Z,19.50
2018-07-25T05:54:27.356Z,20.29
2018-07-25T05:56:55.538Z,20.28
2018-07-25T05:59:23.731Z,20.31
2018-07-25T06:01:52.161Z,20.53
2018-07-25T06:04:20.268Z,20.46
2018-07-25T06:06:48.605Z,20.62
2018-07-25T06:09:16.863Z,20.64
2018-07-25T06:11:45.264Z,20.64
2018-07-25T06:14:13.540Z,20.67
2018-07-25T06:16:41.945Z,20.65
2018-07-25T06:19:10.102Z,20.56
2018-07-25T06:21:38.616Z,20.52
2018-07-25T06:24:07.023Z,20.59
2018-07-25T06:26:35.454Z,20.79
2018-07-25T06:29:03.874Z,21.13
2018-07-25T06:31:32.654Z,22.11
2018-07-25T06:34:01.357Z,22.58
2018-07-25T06:36:30.175Z,22.75
2018-07-25T06:38:58.652Z,22.50
2018-07-25T06:41:27.083Z,21.96
2018-07-25T06:43:55.536Z,21.62
2018-07-25T06:46:23.969Z,21.23
2018-07-25T06:48:52.424Z,21.02
2018-07-25T06:51:21.060Z,21.19
2018-07-25T06:53:49.497Z,21.30
2018-07-25T06:56:18.003Z,21.51
2018-07-25T06:58:46.186Z,21.33
2018-07-25T07:01:14.736Z,21.59
2018-07-25T07:03:43.148Z,22.08
2018-07-25T07:06:11.326Z,21.95
2018-07-25T07:08:39.566Z,22.03
2018-07-25T07:11:07.716Z,22.18
2018-07-25T07:13:35.972Z,22.44
2018-07-25T07:16:04.102Z,22.38
2018-07-25T07:18:32.169Z,22.63
2018-07-25T07:21:00.453Z,22.25
2018-07-25T07:23:28.604Z,22.18
2018-07-25T07:25:56.758Z,21.89
2018-07-25T07:28:24.913Z,21.82
2018-07-25T07:30:53.168Z,21.90
2018-07-25T07:33:21.521Z,22.06
2018-07-25T07:35:49.921Z,22.40
2018-07-25T07:38:18.111Z,22.56
2018-07-25T07:40:46.519Z,22.50
2018-07-25T07:43:14.880Z,22.70
2018-07-25T07:45:43.120Z,22.35
2018-07-25T07:48:11.272Z,22.17
2018-07-25T07:50:39.412Z,22.20
2018-07-25T07:53:07.809Z,22.12
2018-07-25T07:55:36.243Z,22.15
2018-07-25T07:58:04.675Z,22.51
2018-07-25T08:00:33.227Z,22.87
2018-07-25T08:03:01.659Z,22.90
2018-07-25T08:05:30.088Z,23.24
2018-07-25T08:07:58.338Z,23.22
2018-07-25T08:10:26.682Z,23.32
2018-07-25T08:12:55.004Z,23.34
2018-07-25T08:15:23.234Z,22.76
2018-07-25T08:17:51.566Z,22.99
2018-07-25T08:20:19.819Z,23.22
2018-07-25T08:22:47.968Z,23.85
2018-07-25T08:25:16.243Z,24.32
2018-07-25T08:27:44.413Z,24.20
2018-07-25T08:30:12.904Z,24.34
2018-07-25T08:32:41.144Z,24.18
2018-07-25T08:35:10.936Z,24.15
2018-07-25T08:37:39.502Z,24.10
2018-07-25T08:40:08.019Z,24.02
2018-07-25T08:42:37.817Z,24.62
2018-07-25T08:45:06.767Z,24.89
2018-07-25T08:47:35.291Z,24.96
2018-07-25T08:50:04.313Z,24.34
2018-07-25T08:52:32.751Z,24.03
2018-07-25T08:55:01.129Z,24.00
2018-07-25T08:57:29.296Z,23.83
2018-07-25T08:59:57.649Z,23.87
2018-07-25T09:02:26.264Z,24.53
2018-07-25T09:04:54.406Z,24.28
2018-07-25T09:07:22.680Z,24.34
2018-07-25T09:09:50.922Z,25.02
2018-07-25T09:12:19.123Z,25.00
2018-07-25T09:14:47.216Z,25.11
2018-07-25T09:17:16.080Z,25.35
2018-07-25T09:19:44.377Z,25.23
2018-07-25T09:22:12.595Z,25.74
2018-07-25T09:24:40.823Z,25.66
2018-07-25T09:27:09.349Z,25.70
2018-07-25T09:29:38.366Z,25.20
2018-07-25T09:32:06.897Z,24.45
2018-07-25T09:34:35.274Z,24.13
2018-07-25T09:37:04.309Z,24.02
2018-07-25T09:39:34.979Z,23.75
2018-07-25T09:42:05.106Z,23.45
2018-07-25T09:44:33.840Z,22.80
2018-07-25T09:47:03.937Z,21.70
2018-07-25T09:49:32.516Z,20.88
2018-07-25T09:52:00.905Z,20.50
2018-07-25T09:54:29.587Z,19.97
2018-07-25T09:56:58.117Z,19.81
2018-07-25T09:59:26.380Z,19.92
2018-07-25T10:01:54.761Z,19.70
2018-07-25T10:04:26.555Z,19.50
2018-07-25T10:06:54.967Z,19.37
2018-07-25T10:09:23.361Z,19.03
2018-07-25T10:11:55.122Z,18.76
2018-07-25T10:14:24.412Z,18.60
2018-07-25T10:16:52.636Z,18.61
2018-07-25T10:19:21.102Z,18.87
2018-07-25T10:21:49.454Z,19.14
2018-07-25T10:24:17.743Z,19.21
2018-07-25T10:26:46.080Z,19.16
2018-07-25T10:29:14.404Z,19.30
2018-07-25T10:31:43.258Z,19.40
2018-07-25T10:34:11.887Z,19.51
2018-07-25T10:36:40.374Z,19.62
2018-07-25T10:39:09.941Z,19.68
2018-07-25T10:41:38.557Z,19.62
2018-07-25T10:44:10.521Z,19.74
2018-07-25T10:46:40.603Z,19.83
2018-07-25T10:49:08.915Z,19.83
2018-07-25T10:51:37.335Z,19.76
2018-07-25T10:54:05.586Z,19.93
2018-07-25T10:56:33.936Z,19.80
2018-07-25T10:59:02.215Z,19.93
2018-07-25T11:01:31.291Z,19.87
2018-07-25T11:04:00.022Z,19.95
2018-07-25T11:06:28.371Z,20.03
2018-07-25T11:08:56.691Z,20.17
2018-07-25T11:11:28.432Z,20.08
2018-07-25T11:13:58.014Z,20.29
2018-07-25T11:16:26.430Z,20.39
2018-07-25T11:18:55.014Z,20.54
2018-07-25T11:21:23.598Z,20.58
2018-07-25T11:23:52.280Z,20.56
2018-07-25T11:26:21.263Z,20.66
2018-07-25T11:28:50.074Z,20.83
2018-07-25T11:31:19.135Z,20.99
2018-07-25T11:33:47.857Z,21.10
2018-07-25T11:36:16.487Z,20.72
2018-07-25T11:38:44.929Z,20.80
2018-07-25T11:41:13.439Z,20.91
2018-07-25T11:43:42.069Z,20.93
2018-07-25T11:46:10.933Z,20.78
2018-07-25T11:48:39.765Z,20.76
2018-07-25T11:51:08.449Z,20.94
2018-07-25T11:53:37.079Z,20.93
2018-07-25T11:56:05.856Z,21.05
2018-07-25T11:58:34.318Z,21.10
2018-07-25T12:01:02.802Z,21.07
2018-07-25T12:03:31.570Z,21.08
2018-07-25T12:06:00.141Z,21.13
2018-07-25T12:08:29.300Z,21.14
2018-07-25T12:10:57.844Z,21.16
2018-07-25T12:13:26.316Z,20.92
2018-07-25T12:15:54.591Z,20.85
2018-07-25T12:18:23.101Z,20.76
2018-07-25T12:20:51.374Z,20.60
2018-07-25T12:23:19.892Z,20.64
2018-07-25T12:25:48.116Z,20.60
2018-07-25T12:28:16.310Z,20.71
2018-07-25T12:30:44.650Z,20.74
2018-07-25T12:33:13.190Z,20.84
2018-07-25T12:35:41.551Z,20.89
2018-07-25T12:38:09.778Z,20.90
2018-07-25T12:40:38.066Z,21.19
2018-07-25T12:43:06.587Z,21.33
2018-07-25T12:45:35.110Z,21.44
2018-07-25T12:48:03.509Z,21.57
2018-07-25T12:50:32.068Z,21.68
2018-07-25T12:53:00.431Z,21.80
2018-07-25T12:55:28.768Z,21.86
2018-07-25T12:57:57.084Z,22.02
2018-07-25T13:00:25.981Z,22.12
2018-07-25T13:02:54.470Z,22.18
2018-07-25T13:05:22.863Z,22.18
2018-07-25T13:07:51.457Z,22.18
2018-07-25T13:10:20.032Z,22.03
2018-07-25T13:12:48.852Z,21.99
2018-07-25T13:15:17.537Z,22.00
2018-07-25T13:17:46.057Z,22.13
2018-07-25T13:20:14.922Z,22.22
2018-07-25T13:22:45.107Z,22.50
2018-07-25T13:25:14.127Z,22.71
2018-07-25T13:27:42.760Z,22.56
2018-07-25T13:33:16.178Z,22.47
2018-07-25T13:35:49.231Z,22.20
2018-07-25T13:38:17.578Z,22.06
2018-07-25T13:40:46.093Z,22.02
2018-07-25T13:43:14.588Z,21.96
2018-07-25T13:45:43.032Z,21.74
2018-07-25T13:48:11.275Z,21.81
2018-07-25T13:50:39.649Z,21.78
2018-07-25T13:53:08.453Z,21.71
2018-07-25T13:55:37.233Z,21.68
2018-07-25T13:58:06.104Z,21.45
2018-07-25T14:00:34.454Z,21.31
2018-07-25T14:03:02.936Z,21.23
2018-07-25T14:05:31.544Z,21.51
2018-07-25T14:08:00.395Z,21.57
2018-07-25T14:10:28.752Z,21.47
2018-07-25T14:12:58.476Z,21.47
2018-07-25T14:15:26.910Z,21.54
2018-07-25T14:17:55.451Z,21.34
2018-07-25T14:20:23.927Z,21.23
2018-07-25T14:22:52.389Z,21.36
2018-07-25T14:25:20.694Z,21.32
2018-07-25T14:27:49.110Z,20.98
2018-07-25T14:30:17.392Z,20.96
2018-07-25T14:32:45.636Z,21.18
2018-07-25T14:35:13.981Z,21.14
2018-07-25T14:37:42.348Z,20.95
2018-07-25T14:40:10.657Z,21.03
2018-07-25T14:42:39.107Z,21.15
2018-07-25T14:45:07.487Z,21.36
2018-07-25T14:47:35.913Z,21.40
2018-07-25T14:50:06.746Z,21.37
2018-07-25T14:52:35.257Z,21.44
2018-07-25T14:55:03.730Z,21.48
2018-07-25T14:57:32.120Z,21.56
2018-07-25T15:00:00.381Z,21.37
2018-07-25T15:02:28.612Z,21.30
2018-07-25T15:04:56.883Z,21.38
2018-07-25T15:07:25.092Z,21.26
2018-07-25T15:09:53.300Z,21.20
2018-07-25T15:12:27.049Z,21.26
2018-07-25T15:14:55.215Z,21.36
2018-07-25T15:17:23.416Z,21.40
2018-07-25T15:19:51.693Z,21.41
2018-07-25T15:22:19.993Z,21.38
2018-07-25T15:24:48.219Z,21.56
2018-07-25T15:27:16.490Z,21.57
2018-07-25T15:29:44.605Z,21.57
2018-07-25T15:32:12.760Z,21.68
2018-07-25T15:34:40.923Z,21.49
2018-07-25T15:37:09.170Z,21.33
2018-07-25T15:39:37.430Z,21.42
2018-07-25T15:42:05.938Z,21.47
2018-07-25T15:44:34.171Z,21.52
2018-07-25T15:47:02.541Z,21.61
2018-07-25T15:49:30.955Z,21.29
2018-07-25T15:54:27.221Z,21.43
2018-07-25T15:56:55.407Z,21.37
2018-07-25T15:59:23.780Z,21.42
2018-07-25T16:01:52.209Z,21.38
2018-07-25T16:04:20.477Z,21.25
2018-07-25T16:06:50.420Z,21.13
2018-07-25T16:09:18.760Z,21.15
2018-07-25T16:11:47.429Z,21.11
2018-07-25T16:14:15.827Z,21.09
2018-07-25T16:16:44.568Z,20.98
2018-07-25T16:19:14.027Z,20.85
2018-07-25T16:21:42.772Z,20.73
2018-07-25T16:24:11.131Z,20.70
2018-07-25T16:26:39.755Z,20.61
2018-07-25T16:29:08.106Z,20.50
2018-07-25T16:31:36.299Z,20.39
2018-07-25T16:34:04.681Z,20.37
2018-07-25T16:36:33.039Z,20.26
2018-07-25T16:39:01.344Z,20.18
2018-07-25T16:41:29.668Z,20.07
2018-07-25T16:43:58.058Z,19.93
2018-07-25T16:46:26.311Z,19.77
2018-07-25T16:48:54.765Z,19.72
2018-07-25T16:51:22.925Z,19.60
2018-07-25T16:53:51.367Z,19.48
2018-07-25T16:56:19.873Z,19.33
2018-07-25T16:58:48.521Z,19.25
2018-07-25T17:01:16.912Z,19.24
2018-07-25T17:03:45.717Z,19.22
2018-07-25T17:06:14.551Z,19.23
2018-07-25T17:08:43.035Z,19.16
2018-07-25T17:11:11.428Z,19.09
2018-07-25T17:13:39.923Z,19.07
2018-07-25T17:16:08.623Z,19.00
2018-07-25T17:18:37.092Z,18.93
2018-07-25T17:21:06.156Z,18.97
2018-07-25T17:23:34.468Z,18.98
2018-07-25T17:26:02.802Z,18.92
2018-07-25T17:28:31.448Z,18.87
2018-07-25T17:30:59.937Z,18.80
2018-07-25T17:33:28.391Z,18.71
2018-07-25T17:35:57.177Z,18.68
2018-07-25T17:38:25.827Z,18.67
2018-07-25T17:40:54.168Z,18.61
2018-07-25T17:43:22.511Z,18.54
2018-07-25T17:45:50.897Z,18.51
2018-07-25T17:48:19.289Z,18.49
2018-07-25T17:50:47.992Z,18.41
2018-07-25T17:53:16.452Z,18.42
2018-07-25T17:55:44.954Z,18.41
2018-07-25T17:58:13.285Z,18.41
2018-07-25T18:00:41.636Z,18.39
2018-07-25T18:03:10.090Z,18.33
2018-07-25T18:05:38.712Z,18.38
2018-07-25T18:08:07.160Z,18.32
2018-07-25T18:10:36.881Z,18.29
2018-07-25T18:13:11.016Z,18.31
2018-07-25T18:15:39.672Z,18.25
2018-07-25T18:18:08.298Z,18.26
2018-07-25T18:20:36.885Z,18.22
2018-07-25T18:23:05.484Z,18.19
2018-07-25T18:25:33.925Z,18.16
2018-07-25T18:28:02.643Z,18.15
2018-07-25T18:30:31.099Z,18.11
2018-07-25T18:32:59.953Z,18.11
2018-07-25T18:35:28.596Z,18.06
2018-07-25T18:37:57.009Z,18.05
2018-07-25T18:40:25.581Z,18.05
2018-07-25T18:42:54.096Z,18.02
2018-07-25T18:45:22.552Z,17.97
2018-07-25T18:47:50.993Z,17.89
2018-07-25T18:50:19.466Z,17.88
2018-07-25T18:52:47.826Z,17.82
2018-07-25T18:55:16.363Z,17.72
2018-07-25T18:57:44.770Z,17.75
2018-07-25T19:00:13.200Z,17.73
2018-07-25T19:02:41.985Z,17.70
2018-07-25T19:05:10.407Z,17.75
2018-07-25T19:07:38.707Z,17.74
2018-07-25T19:10:07.182Z,17.75
2018-07-25T19:12:35.877Z,17.71
2018-07-25T19:15:09.979Z,17.71
2018-07-25T19:17:38.367Z,17.68
2018-07-25T19:20:06.739Z,17.65
2018-07-25T19:22:35.132Z,17.64
2018-07-25T19:25:03.498Z,17.63
2018-07-25T19:27:31.960Z,17.64
2018-07-25T19:30:00.498Z,17.63
2018-07-25T19:32:28.971Z,17.60
2018-07-25T19:34:57.391Z,17.60
2018-07-25T19:37:25.817Z,17.60
2018-07-25T19:39:54.192Z,17.55
2018-07-25T19:42:22.703Z,17.56
2018-07-25T19:44:51.393Z,17.54
2018-07-25T19:47:19.760Z,17.50
2018-07-25T19:49:48.195Z,17.51
2018-07-25T19:52:16.704Z,17.47
2018-07-25T19:54:45.129Z,17.46
2018-07-25T19:57:13.523Z,17.45
2018-07-25T19:59:42.166Z,17.45
2018-07-25T20:02:10.981Z,17.42
2018-07-25T20:04:39.261Z,17.42
2018-07-25T20:07:07.600Z,17.43
2018-07-25T20:09:36.038Z,17.41
2018-07-25T20:12:04.953Z,17.41
2018-07-25T20:14:38.855Z,17.42
2018-07-25T20:17:07.204Z,17.38
2018-07-25T20:19:35.575Z,17.36
2018-07-25T20:22:04.208Z,17.34
2018-07-25T20:24:32.765Z,17.33
2018-07-25T20:27:01.172Z,17.30
2018-07-25T20:29:29.884Z,17.27
2018-07-25T20:31:58.997Z,17.25
2018-07-25T20:34:27.382Z,17.22
2018-07-25T20:36:55.696Z,17.15
2018-07-25T20:39:24.089Z,17.14
2018-07-25T20:41:52.404Z,17.11
2018-07-25T20:44:20.802Z,17.06
2018-07-25T20:46:49.291Z,17.02
2018-07-25T20:49:17.668Z,16.95
2018-07-25T20:51:46.008Z,16.89
2018-07-25T20:54:14.328Z,16.87
2018-07-25T20:56:42.683Z,16.76
2018-07-25T20:59:11.109Z,16.70
2018-07-25T21:01:39.313Z,16.66
2018-07-25T21:04:07.728Z,16.64
2018-07-25T21:06:35.958Z,16.60
2018-07-25T21:09:06.674Z,16.48
2018-07-25T21:11:35.058Z,16.44
2018-07-25T21:14:03.444Z,16.44
2018-07-25T21:16:31.726Z,16.44
2018-07-25T21:19:00.089Z,16.42
2018-07-25T21:21:28.372Z,16.37
2018-07-25T21:23:57.870Z,16.37
2018-07-25T21:26:26.336Z,16.37
2018-07-25T21:28:54.716Z,16.38
2018-07-25T21:31:23.075Z,16.33
2018-07-25T21:33:51.277Z,16.28
2018-07-25T21:36:19.558Z,16.20
2018-07-25T21:38:47.845Z,16.20
2018-07-25T21:41:16.910Z,16.15
2018-07-25T21:43:45.273Z,16.15
2018-07-25T21:46:13.542Z,16.12
2018-07-25T21:48:41.845Z,16.06
2018-07-25T21:51:10.108Z,16.04
2018-07-25T21:53:38.866Z,16.01
2018-07-25T21:56:07.197Z,15.96
2018-07-25T21:58:35.472Z,15.91
2018-07-25T22:01:10.568Z,15.89
2018-07-25T22:03:39.004Z,15.85
2018-07-25T22:06:07.979Z,15.84
2018-07-25T22:08:37.409Z,15.80
2018-07-25T22:11:05.888Z,15.77
2018-07-25T22:13:34.251Z,15.77
2018-07-25T22:16:03.490Z,15.73
2018-07-25T22:18:32.807Z,15.67
2018-07-25T22:21:01.260Z,15.61
2018-07-25T22:23:30.421Z,15.58
2018-07-25T22:25:58.875Z,15.58
2018-07-25T22:28:27.168Z,15.57
2018-07-25T22:30:55.636Z,15.55
2018-07-25T22:33:24.095Z,15.49
2018-07-25T22:35:52.633Z,15.46
2018-07-25T22:38:21.871Z,15.46
2018-07-25T22:40:50.780Z,15.45
2018-07-25T22:43:19.327Z,15.45
2018-07-25T22:45:48.321Z,15.36
2018-07-25T22:48:16.717Z,15.37
2018-07-25T22:50:45.417Z,15.36
2018-07-25T22:53:13.878Z,15.33
2018-07-25T22:55:42.380Z,15.40
2018-07-25T22:58:10.798Z,15.42
2018-07-25T23:00:39.240Z,15.43
2018-07-25T23:03:07.637Z,15.33
2018-07-25T23:05:36.101Z,15.28
2018-07-25T23:08:04.736Z,15.32
2018-07-25T23:10:33.214Z,15.33
2018-07-25T23:13:01.681Z,15.31
2018-07-25T23:15:30.163Z,15.27
2018-07-25T23:17:58.579Z,15.18
2018-07-25T23:20:27.102Z,15.18
2018-07-25T23:22:58.747Z,15.23
2018-07-25T23:25:27.590Z,15.25
2018-07-25T23:27:57.149Z,15.20
2018-07-25T23:30:26.706Z,15.14
2018-07-25T23:32:55.159Z,15.15
2018-07-25T23:35:23.573Z,15.19
2018-07-25T23:37:52.294Z,15.16
2018-07-25T23:40:20.990Z,15.13
2018-07-25T23:42:49.985Z,15.10
2018-07-25T23:45:18.650Z,15.12
2018-07-25T23:47:47.014Z,15.10
2018-07-25T23:50:15.292Z,15.09
2018-07-25T23:52:43.665Z,15.07
2018-07-25T23:55:12.036Z,15.08
2018-07-25T23:57:40.380Z,15.06
